createdAt,value
2018-04-07T00:00:43.860Z,16.60
2018-04-07T00:03:11.415Z,13.83
2018-04-07T00:05:39.136Z,15.90
2018-04-07T00:08:07.506Z,14.93
2018-04-07T00:10:35.048Z,14.50
2018-04-07T00:13:03.355Z,15.30
2018-04-07T00:15:32.498Z,19.50
2018-04-07T00:18:00.072Z,20.87
2018-04-07T00:20:27.646Z,14.63
2018-04-07T00:22:56.783Z,11.67
2018-04-07T00:25:24.875Z,18.27
2018-04-07T00:27:52.420Z,15.43
2018-04-07T00:30:20.403Z,15.43
2018-04-07T00:32:47.958Z,23.33
2018-04-07T00:35:16.038Z,11.60
2018-04-07T00:37:43.598Z,15.57
2018-04-07T00:40:11.157Z,12.80
2018-04-07T00:42:38.737Z,14.10
2018-04-07T00:45:08.964Z,12.10
2018-04-07T00:47:37.229Z,18.43
2018-04-07T00:50:04.776Z,15.37
2018-04-07T00:52:44.336Z,13.40
2018-04-07T00:55:11.864Z,11.10
2018-04-07T00:57:39.439Z,11.50
2018-04-07T01:00:07.049Z,15.83
2018-04-07T01:02:34.598Z,17.97
2018-04-07T01:05:02.914Z,17.93
2018-04-07T01:07:30.474Z,16.13
2018-04-07T01:09:58.060Z,10.57
2018-04-07T01:12:26.279Z,12.87
2018-04-07T01:14:53.802Z,19.90
2018-04-07T01:17:21.367Z,13.80
2018-04-07T01:19:48.949Z,13.77
2018-04-07T01:22:17.268Z,16.17
2018-04-07T01:24:44.845Z,22.20
2018-04-07T01:27:12.464Z,11.70
2018-04-07T01:29:40.036Z,17.73
2018-04-07T01:32:08.334Z,17.23
2018-04-07T01:34:35.932Z,12.73
2018-04-07T01:37:03.490Z,14.73
2018-04-07T01:39:31.054Z,14.43
2018-04-07T01:41:59.236Z,13.80
2018-04-07T01:44:27.183Z,13.07
2018-04-07T01:46:54.751Z,13.20
2018-04-07T01:49:22.278Z,16.60
2018-04-07T01:51:49.833Z,23.47
2018-04-07T01:54:17.363Z,16.23
2018-04-07T01:56:44.888Z,18.97
2018-04-07T01:59:12.464Z,10.60
2018-04-07T02:01:40.053Z,16.90
2018-04-07T02:04:09.203Z,21.40
2018-04-07T02:06:36.767Z,14.97
2018-04-07T02:09:04.361Z,14.93
2018-04-07T02:11:34.890Z,17.00
2018-04-07T02:14:03.212Z,23.40
2018-04-07T02:16:30.743Z,15.83
2018-04-07T02:18:59.099Z,13.93
2018-04-07T02:21:27.533Z,17.83
2018-04-07T02:23:55.075Z,16.67
2018-04-07T02:26:23.425Z,17.23
2018-04-07T02:28:50.978Z,19.77
2018-04-07T02:31:19.424Z,14.77
2018-04-07T02:33:47.702Z,12.00
2018-04-07T02:36:15.362Z,19.13
2018-04-07T02:38:42.926Z,18.17
2018-04-07T02:41:10.562Z,17.07
2018-04-07T02:43:38.083Z,17.67
2018-04-07T02:46:07.302Z,16.63
2018-04-07T02:48:34.849Z,13.97
2018-04-07T02:51:03.174Z,15.90
2018-04-07T02:53:30.768Z,17.03
2018-04-07T02:55:58.338Z,11.90
2018-04-07T02:58:25.913Z,13.23
2018-04-07T03:00:54.216Z,17.23
2018-04-07T03:03:21.770Z,15.17
2018-04-07T03:05:49.312Z,21.20
2018-04-07T03:08:17.676Z,15.17
2018-04-07T03:10:46.844Z,16.00
2018-04-07T03:13:14.381Z,21.10
2018-04-07T03:15:42.671Z,18.13
2018-04-07T03:18:10.202Z,14.70
2018-04-07T03:20:37.787Z,14.43
2018-04-07T03:23:05.513Z,13.60
2018-04-07T03:25:33.052Z,19.50
2018-04-07T03:28:00.607Z,12.00
2018-04-07T03:30:29.084Z,17.87
2018-04-07T03:32:56.610Z,16.73
2018-04-07T03:35:24.180Z,16.10
2018-04-07T03:37:51.690Z,20.83
2018-04-07T03:40:19.999Z,13.30
2018-04-07T03:42:48.455Z,21.10
2018-04-07T03:45:16.877Z,14.47
2018-04-07T03:47:44.645Z,19.97
2018-04-07T03:50:12.895Z,20.27
2018-04-07T03:52:40.456Z,15.60
2018-04-07T03:55:08.647Z,21.10
2018-04-07T03:57:36.737Z,25.33
2018-04-07T04:00:04.296Z,12.73
2018-04-07T04:02:32.037Z,19.60
2018-04-07T04:04:59.602Z,32.33
2018-04-07T04:07:27.179Z,20.80
2018-04-07T04:09:54.811Z,29.80
2018-04-07T04:12:22.333Z,26.73
2018-04-07T04:14:49.884Z,22.20
2018-04-07T04:17:17.918Z,26.30
2018-04-07T04:19:46.050Z,29.97
2018-04-07T04:22:14.362Z,26.47
2018-04-07T04:24:42.372Z,18.03
2018-04-07T04:27:09.936Z,25.87
2018-04-07T04:29:37.461Z,21.50
2018-04-07T04:32:05.015Z,21.87
2018-04-07T04:34:33.559Z,16.20
2018-04-07T04:37:01.119Z,21.60
2018-04-07T04:39:29.450Z,18.90
2018-04-07T04:41:57.025Z,27.60
2018-04-07T04:44:24.600Z,16.63
2018-04-07T04:46:52.926Z,20.30
2018-04-07T04:49:20.855Z,26.30
2018-04-07T04:51:49.179Z,23.07
2018-04-07T04:54:16.731Z,16.17
2018-04-07T04:56:44.313Z,20.20
2018-04-07T04:59:12.475Z,24.30
2018-04-07T05:01:40.027Z,15.47
2018-04-07T05:04:07.566Z,14.93
2018-04-07T05:06:35.088Z,22.13
2018-04-07T05:09:02.700Z,23.23
2018-04-07T05:11:30.272Z,22.30
2018-04-07T05:13:57.870Z,23.90
2018-04-07T05:16:25.914Z,18.47
2018-04-07T05:18:54.579Z,23.60
2018-04-07T05:21:22.246Z,17.63
2018-04-07T05:23:49.808Z,36.93
2018-04-07T05:26:17.386Z,26.37
2018-04-07T05:28:45.640Z,25.40
2018-04-07T05:31:13.166Z,25.83
2018-04-07T05:33:40.704Z,43.20
2018-04-07T05:36:08.299Z,24.50
2018-04-07T05:38:35.991Z,21.30
2018-04-07T05:41:03.561Z,18.83
2018-04-07T05:43:32.066Z,32.37
2018-04-07T05:45:59.598Z,25.70
2018-04-07T05:48:27.219Z,21.20
2018-04-07T05:50:54.818Z,16.20
2018-04-07T05:53:22.419Z,29.07
2018-04-07T05:55:50.730Z,24.60
2018-04-07T05:58:18.250Z,20.73
2018-04-07T06:00:46.307Z,27.13
2018-04-07T06:03:14.050Z,23.47
2018-04-07T06:05:41.614Z,25.47
2018-04-07T06:08:09.137Z,19.60
2018-04-07T06:10:36.669Z,26.33
2018-04-07T06:13:05.127Z,29.20
2018-04-07T06:15:33.630Z,27.50
2018-04-07T06:18:01.211Z,23.50
2018-04-07T06:20:30.294Z,24.10
2018-04-07T06:22:57.842Z,20.80
2018-04-07T06:25:26.034Z,36.70
2018-04-07T06:27:54.331Z,35.47
2018-04-07T06:30:22.231Z,33.17
2018-04-07T06:32:49.757Z,36.13
2018-04-07T06:35:17.298Z,34.03
2018-04-07T06:37:46.087Z,28.73
2018-04-07T06:40:14.021Z,29.20
2018-04-07T06:42:42.371Z,25.53
2018-04-07T06:45:10.048Z,22.47
2018-04-07T06:47:37.593Z,29.30
2018-04-07T06:50:05.152Z,26.17
2018-04-07T06:52:33.313Z,23.27
2018-04-07T06:55:00.870Z,27.80
2018-04-07T06:57:28.549Z,38.73
2018-04-07T06:59:56.832Z,29.57
2018-04-07T07:02:24.353Z,27.47
2018-04-07T07:04:51.951Z,29.90
2018-04-07T07:07:19.484Z,29.10
2018-04-07T07:09:47.440Z,30.40
2018-04-07T07:12:16.222Z,27.80
2018-04-07T07:14:43.978Z,20.90
2018-04-07T07:17:11.828Z,31.27
2018-04-07T07:19:39.485Z,30.03
2018-04-07T07:22:07.040Z,27.33
2018-04-07T07:24:34.605Z,37.30
2018-04-07T07:27:02.203Z,33.00
2018-04-07T07:29:30.703Z,30.80
2018-04-07T07:31:58.235Z,28.60
2018-04-07T07:34:26.776Z,26.27
2018-04-07T07:36:55.123Z,29.70
2018-04-07T07:39:23.346Z,29.70
2018-04-07T07:41:50.897Z,37.33
2018-04-07T07:44:18.748Z,32.37
2018-04-07T07:46:47.205Z,41.97
2018-04-07T07:49:14.743Z,32.30
2018-04-07T07:51:43.506Z,29.07
2018-04-07T07:54:11.083Z,32.17
2018-04-07T07:56:38.661Z,35.43
2018-04-07T07:59:06.955Z,30.43
2018-04-07T08:01:35.152Z,30.90
2018-04-07T08:04:02.687Z,26.77
2018-04-07T08:06:30.248Z,20.47
2018-04-07T08:08:57.795Z,23.43
2018-04-07T08:11:25.943Z,19.73
2018-04-07T08:13:53.473Z,19.57
2018-04-07T08:16:21.759Z,22.33
2018-04-07T08:18:50.467Z,28.90
2018-04-07T08:21:18.064Z,32.47
2018-04-07T08:23:46.244Z,18.90
2018-04-07T08:26:13.890Z,19.73
2018-04-07T08:28:41.438Z,24.80
2018-04-07T08:31:09.805Z,27.40
2018-04-07T08:33:37.892Z,20.30
2018-04-07T08:36:06.002Z,21.20
2018-04-07T08:38:33.617Z,20.37
2018-04-07T08:41:01.552Z,17.87
2018-04-07T08:43:29.117Z,22.90
2018-04-07T08:45:56.719Z,18.33
2018-04-07T08:48:24.297Z,25.50
2018-04-07T08:50:52.117Z,23.13
2018-04-07T08:53:19.735Z,19.23
2018-04-07T08:55:47.301Z,20.97
2018-04-07T08:58:15.278Z,17.07
2018-04-07T09:00:43.052Z,16.63
2018-04-07T09:03:10.590Z,16.70
2018-04-07T09:05:38.137Z,18.80
2018-04-07T09:08:06.296Z,17.43
2018-04-07T09:10:34.615Z,22.40
2018-04-07T09:13:02.173Z,18.93
2018-04-07T09:15:29.733Z,17.07
2018-04-07T09:17:57.891Z,21.20
2018-04-07T09:20:26.067Z,20.23
2018-04-07T09:22:53.597Z,18.83
2018-04-07T09:25:21.917Z,14.50
2018-04-07T09:27:49.448Z,14.20
2018-04-07T09:30:17.313Z,15.70
2018-04-07T09:32:45.561Z,18.33
2018-04-07T09:35:13.579Z,19.43
2018-04-07T09:37:41.155Z,15.30
2018-04-07T09:40:08.692Z,16.90
2018-04-07T09:42:36.245Z,14.13
2018-04-07T09:45:03.879Z,17.90
2018-04-07T09:47:32.168Z,19.60
2018-04-07T09:50:00.559Z,15.80
2018-04-07T09:52:28.123Z,15.93
2018-04-07T09:54:56.152Z,15.07
2018-04-07T09:57:24.722Z,18.73
2018-04-07T09:59:52.302Z,16.43
2018-04-07T10:02:20.625Z,22.63
2018-04-07T10:04:48.174Z,15.03
2018-04-07T10:07:17.078Z,14.10
2018-04-07T10:09:45.777Z,15.93
2018-04-07T10:12:13.413Z,14.87
2018-04-07T10:14:40.971Z,13.10
2018-04-07T10:17:08.995Z,19.10
2018-04-07T10:19:36.634Z,15.10
2018-04-07T10:22:05.216Z,18.03
2018-04-07T10:24:33.307Z,17.37
2018-04-07T10:27:00.953Z,22.73
2018-04-07T10:29:28.565Z,16.67
2018-04-07T10:31:57.393Z,12.60
2018-04-07T10:34:24.953Z,14.70
2018-04-07T10:36:52.609Z,17.57
2018-04-07T10:39:20.211Z,15.73
2018-04-07T10:41:47.780Z,19.80
2018-04-07T10:44:16.186Z,18.63
2018-04-07T10:46:43.749Z,17.80
2018-04-07T10:49:12.138Z,18.80
2018-04-07T10:51:39.689Z,19.63
2018-04-07T10:54:07.272Z,21.80
2018-04-07T10:56:35.912Z,21.47
2018-04-07T10:59:04.212Z,21.03
2018-04-07T11:01:31.846Z,17.80
2018-04-07T11:03:59.413Z,15.27
2018-04-07T11:06:26.960Z,16.87
2018-04-07T11:08:54.525Z,15.57
2018-04-07T11:11:22.079Z,14.30
2018-04-07T11:13:49.618Z,14.70
2018-04-07T11:16:17.371Z,13.83
2018-04-07T11:18:46.735Z,17.10
2018-04-07T11:21:14.283Z,13.80
2018-04-07T11:23:41.890Z,14.90
2018-04-07T11:26:10.360Z,13.27
2018-04-07T11:28:37.899Z,12.40
2018-04-07T11:31:05.931Z,14.50
2018-04-07T11:33:33.995Z,23.83
2018-04-07T11:36:01.555Z,15.53
2018-04-07T11:38:29.102Z,12.60
2018-04-07T11:40:56.947Z,14.93
2018-04-07T11:43:24.675Z,10.60
2018-04-07T11:45:53.035Z,13.43
2018-04-07T11:48:20.586Z,12.13
2018-04-07T11:50:48.155Z,16.20
2018-04-07T11:53:16.262Z,13.90
2018-04-07T11:55:44.595Z,15.53
2018-04-07T11:58:12.139Z,12.90
2018-04-07T12:00:39.669Z,11.80
2018-04-07T12:03:07.276Z,13.83
2018-04-07T12:05:35.357Z,17.30
2018-04-07T12:08:03.390Z,17.10
2018-04-07T12:10:30.978Z,22.80
2018-04-07T12:12:58.507Z,12.10
2018-04-07T12:15:26.764Z,11.97
2018-04-07T12:17:54.322Z,15.30
2018-04-07T12:20:22.623Z,12.87
2018-04-07T12:22:50.216Z,10.80
2018-04-07T12:25:17.784Z,10.97
2018-04-07T12:27:46.134Z,14.03
2018-04-07T12:30:14.047Z,10.70
2018-04-07T12:32:41.602Z,10.63
2018-04-07T12:35:09.702Z,13.90
2018-04-07T12:37:37.259Z,17.20
2018-04-07T12:40:06.046Z,13.43
2018-04-07T12:42:34.195Z,10.30
2018-04-07T12:45:01.754Z,9.93
2018-04-07T12:47:29.373Z,13.67
2018-04-07T12:49:56.917Z,10.37
2018-04-07T12:52:24.719Z,12.10
2018-04-07T12:54:52.272Z,9.63
2018-04-07T12:57:19.794Z,13.13
2018-04-07T12:59:47.349Z,10.93
2018-04-07T13:02:15.846Z,16.73
2018-04-07T13:04:43.399Z,12.10
2018-04-07T13:07:10.956Z,10.23
2018-04-07T13:09:38.556Z,9.90
2018-04-07T13:12:06.850Z,10.43
2018-04-07T13:14:35.131Z,7.93
2018-04-07T13:17:02.694Z,9.43
2018-04-07T13:19:30.259Z,8.80
2018-04-07T13:21:57.887Z,8.40
2018-04-07T13:24:25.955Z,13.07
2018-04-07T13:26:53.850Z,9.03
2018-04-07T13:29:21.402Z,9.30
2018-04-07T13:31:48.963Z,13.13
2018-04-07T13:34:16.503Z,10.80
2018-04-07T13:36:44.050Z,9.20
2018-04-07T13:39:11.599Z,11.40
2018-04-07T13:41:39.127Z,10.00
2018-04-07T13:44:07.443Z,10.70
2018-04-07T13:46:34.990Z,7.70
2018-04-07T13:49:02.560Z,8.20
2018-04-07T13:51:30.095Z,7.73
2018-04-07T13:53:58.679Z,6.50
2018-04-07T13:56:26.978Z,10.63
2018-04-07T13:58:54.756Z,10.23
2018-04-07T14:01:22.375Z,9.10
2018-04-07T14:03:51.587Z,7.73
2018-04-07T14:06:19.138Z,7.20
2018-04-07T14:08:46.694Z,9.77
2018-04-07T14:11:14.718Z,8.30
2018-04-07T14:13:42.287Z,12.33
2018-04-07T14:16:09.815Z,9.20
2018-04-07T14:18:37.328Z,10.00
2018-04-07T14:21:06.294Z,8.57
2018-04-07T14:23:33.891Z,9.10
2018-04-07T14:26:01.472Z,10.17
2018-04-07T14:28:29.008Z,9.23
2018-04-07T14:30:56.859Z,11.63
2018-04-07T14:33:24.646Z,9.30
2018-04-07T14:35:53.679Z,15.07
2018-04-07T14:38:22.108Z,10.33
2018-04-07T14:40:49.719Z,14.90
2018-04-07T14:43:17.256Z,10.43
2018-04-07T14:45:45.235Z,11.50
2018-04-07T14:48:12.840Z,14.20
2018-04-07T14:50:40.384Z,12.07
2018-04-07T14:53:07.907Z,16.43
2018-04-07T14:55:36.094Z,11.23
2018-04-07T14:58:03.950Z,11.77
2018-04-07T15:00:31.550Z,10.00
2018-04-07T15:02:59.136Z,11.60
2018-04-07T15:05:27.617Z,11.37
2018-04-07T15:07:55.161Z,19.10
2018-04-07T15:10:22.687Z,17.73
2018-04-07T15:12:51.084Z,15.53
2018-04-07T15:15:18.632Z,16.52
2018-04-07T15:17:46.471Z,16.50
2018-04-07T15:20:14.221Z,15.17
2018-04-07T15:22:42.521Z,16.77
2018-04-07T15:25:10.499Z,18.27
2018-04-07T15:27:39.124Z,15.50
2018-04-07T15:30:06.749Z,12.70
2018-04-07T15:32:35.914Z,14.90
2018-04-07T15:35:06.204Z,21.53
2018-04-07T15:37:33.748Z,16.40
2018-04-07T15:40:01.475Z,14.70
2018-04-07T15:42:29.263Z,22.23
2018-04-07T15:44:56.902Z,14.57
2018-04-07T15:47:24.462Z,23.00
2018-04-07T15:49:53.244Z,25.20
2018-04-07T15:52:21.656Z,16.90
2018-04-07T15:54:49.234Z,18.90
2018-04-07T15:57:16.766Z,16.80
2018-04-07T15:59:44.306Z,16.77
2018-04-07T16:02:12.698Z,20.20
2018-04-07T16:04:41.728Z,18.07
2018-04-07T16:07:09.263Z,16.47
2018-04-07T16:09:37.031Z,21.07
2018-04-07T16:12:04.566Z,18.77
2018-04-07T16:14:32.460Z,19.07
2018-04-07T16:17:00.971Z,16.33
2018-04-07T16:19:29.091Z,19.87
2018-04-07T16:21:57.132Z,17.80
2018-04-07T16:24:25.709Z,19.80
2018-04-07T16:26:53.863Z,23.93
2018-04-07T16:29:21.457Z,27.07
2018-04-07T16:31:49.659Z,25.77
2018-04-07T16:34:17.239Z,21.03
2018-04-07T16:49:40.648Z,24.77
2018-04-07T16:52:10.123Z,22.97
2018-04-07T16:54:37.675Z,24.97
2018-04-07T16:57:05.227Z,26.70
2018-04-07T16:59:32.779Z,23.83
2018-04-07T17:02:00.298Z,21.57
2018-04-07T17:04:27.827Z,23.60
2018-04-07T17:06:55.423Z,21.83
2018-04-07T17:09:24.438Z,24.27
2018-04-07T17:11:51.971Z,22.10
2018-04-07T17:14:19.554Z,22.00
2018-04-07T17:16:47.456Z,28.83
2018-04-07T17:19:14.976Z,22.40
2018-04-07T17:21:43.398Z,26.83
2018-04-07T17:24:10.958Z,23.77
2018-04-07T17:26:40.227Z,23.00
2018-04-07T17:29:07.809Z,26.47
2018-04-07T17:31:35.348Z,22.57
2018-04-07T17:34:02.888Z,28.60
2018-04-07T17:36:30.446Z,25.60
2018-04-07T17:38:58.014Z,24.47
2018-04-07T17:41:26.445Z,21.93
2018-04-07T17:43:54.502Z,21.70
2018-04-07T17:46:23.491Z,22.50
2018-04-07T17:48:51.776Z,26.07
2018-04-07T17:51:19.949Z,24.33
2018-04-07T17:53:47.496Z,25.20
2018-04-07T17:56:15.024Z,28.97
2018-04-07T17:58:43.571Z,26.93
2018-04-07T18:01:11.102Z,28.50
2018-04-07T18:03:38.650Z,23.40
2018-04-07T18:06:06.205Z,26.50
2018-04-07T18:08:35.139Z,23.43
2018-04-07T18:11:03.403Z,25.40
2018-04-07T18:13:30.950Z,26.20
2018-04-07T18:15:58.521Z,21.83
2018-04-07T18:18:26.057Z,24.10
2018-04-07T18:20:53.583Z,21.57
2018-04-07T18:23:21.501Z,24.13
2018-04-07T18:25:50.557Z,24.57
2018-04-07T18:28:18.844Z,24.27
2018-04-07T18:30:46.373Z,25.37
2018-04-07T18:33:14.721Z,25.93
2018-04-07T18:35:42.281Z,24.13
2018-04-07T18:38:09.812Z,21.33
2018-04-07T18:40:38.215Z,23.97
2018-04-07T18:43:07.344Z,22.07
2018-04-07T18:45:35.289Z,28.97
2018-04-07T18:48:03.721Z,29.57
2018-04-07T18:50:31.300Z,32.00
2018-04-07T18:52:58.895Z,28.13
2018-04-07T18:55:28.826Z,24.17
2018-04-07T18:57:57.755Z,22.87
2018-04-07T19:00:26.220Z,26.73
2018-04-07T19:02:53.815Z,22.53
2018-04-07T19:05:21.668Z,21.10
2018-04-07T19:07:49.390Z,26.23
2018-04-07T19:10:17.442Z,28.07
2018-04-07T19:12:45.646Z,23.20
2018-04-07T19:15:13.987Z,26.83
2018-04-07T19:17:42.143Z,27.63
2018-04-07T19:20:09.732Z,28.00
2018-04-07T19:22:37.404Z,23.60
2018-04-07T19:25:04.983Z,25.10
2018-04-07T19:27:33.281Z,26.87
2018-04-07T19:30:00.848Z,34.17
2018-04-07T19:32:28.442Z,28.17
2018-04-07T19:34:56.560Z,27.67
2018-04-07T19:37:24.856Z,31.07
2018-04-07T19:39:52.420Z,28.07
2018-04-07T19:42:21.016Z,27.70
2018-04-07T19:44:48.572Z,28.03
2018-04-07T19:47:17.331Z,29.53
2018-04-07T19:49:45.688Z,33.23
2018-04-07T19:52:13.531Z,37.40
2018-04-07T19:54:41.176Z,29.13
2018-04-07T19:57:08.725Z,29.40
2018-04-07T19:59:36.283Z,31.70
2018-04-07T20:02:04.058Z,30.43
2018-04-07T20:04:32.051Z,30.07
2018-04-07T20:07:00.541Z,28.80
2018-04-07T20:09:28.923Z,34.23
2018-04-07T20:11:56.645Z,33.53
2018-04-07T20:14:24.237Z,29.53
2018-04-07T20:16:51.779Z,33.73
2018-04-07T20:19:19.404Z,28.83
2018-04-07T20:21:47.097Z,32.93
2018-04-07T20:24:17.381Z,28.20
2018-04-07T20:26:45.686Z,30.83
2018-04-07T20:29:13.235Z,33.57
2018-04-07T20:31:40.754Z,30.50
2018-04-07T20:34:08.277Z,30.43
2018-04-07T20:36:36.704Z,33.13
2018-04-07T20:39:04.282Z,32.30
2018-04-07T20:41:33.595Z,34.93
2018-04-07T20:44:01.114Z,30.77
2018-04-07T20:46:29.528Z,34.03
2018-04-07T20:48:57.959Z,35.97
2018-04-07T20:51:25.491Z,32.67
2018-04-07T20:53:53.025Z,30.07
2018-04-07T20:56:21.038Z,29.77
2018-04-07T20:58:48.606Z,32.80
2018-04-07T21:01:16.174Z,29.63
2018-04-07T21:03:43.754Z,32.20
2018-04-07T21:06:12.234Z,30.77
2018-04-07T21:08:40.610Z,32.00
2018-04-07T21:11:08.944Z,33.40
2018-04-07T21:13:38.122Z,33.20
2018-04-07T21:16:05.781Z,30.40
2018-04-07T21:18:34.827Z,32.60
2018-04-07T21:21:02.364Z,33.20
2018-04-07T21:23:29.946Z,36.40
2018-04-07T21:25:57.544Z,29.47
2018-04-07T21:28:26.124Z,45.00
2018-04-07T21:30:54.540Z,36.07
2018-04-07T21:33:22.087Z,30.27
2018-04-07T21:35:49.883Z,34.23
2018-04-07T21:38:17.459Z,34.50
2018-04-07T21:40:45.045Z,32.50
2018-04-07T21:43:14.489Z,30.80
2018-04-07T21:45:42.854Z,28.03
2018-04-07T21:48:10.387Z,36.83
2018-04-07T21:50:39.837Z,35.70
2018-04-07T21:53:07.414Z,36.80
2018-04-07T21:55:35.005Z,31.97
2018-04-07T21:58:02.604Z,31.37
2018-04-07T22:00:31.610Z,27.33
2018-04-07T22:02:59.750Z,32.07
2018-04-07T22:05:27.799Z,30.00
2018-04-07T22:07:56.280Z,30.83
2018-04-07T22:10:23.794Z,32.20
2018-04-07T22:12:51.333Z,32.00
2018-04-07T22:15:19.187Z,30.97
2018-04-07T22:17:47.453Z,38.40
2018-04-07T22:20:15.005Z,41.23
2018-04-07T22:22:43.631Z,34.37
2018-04-07T22:25:11.137Z,33.33
2018-04-07T22:27:38.690Z,30.30
2018-04-07T22:30:11.225Z,32.40
2018-04-07T22:32:38.734Z,31.27
2018-04-07T22:35:06.702Z,31.87
2018-04-07T22:37:34.930Z,33.07
2018-04-07T22:40:02.449Z,33.40
2018-04-07T22:42:30.705Z,33.60
2018-04-07T22:44:58.375Z,31.60
2018-04-07T22:47:26.643Z,39.93
2018-04-07T22:49:54.157Z,30.83
2018-04-07T22:52:21.703Z,31.37
2018-04-07T22:54:49.993Z,30.07
2018-04-07T22:57:17.528Z,32.97
2018-04-07T22:59:46.234Z,34.87
2018-04-07T23:02:13.987Z,34.50
2018-04-07T23:04:42.247Z,33.43
2018-04-07T23:07:10.558Z,31.87
2018-04-07T23:09:38.048Z,29.47
2018-04-07T23:12:05.597Z,29.27
2018-04-07T23:14:33.895Z,29.97
2018-04-07T23:17:01.405Z,37.13
2018-04-07T23:19:30.165Z,35.67
2018-04-07T23:21:57.657Z,34.43
2018-04-07T23:24:25.493Z,33.40
2018-04-07T23:26:53.743Z,32.57
2018-04-07T23:29:21.273Z,33.90
2018-04-07T23:31:48.772Z,32.90
2018-04-07T23:34:16.300Z,30.73
2018-04-07T23:36:45.727Z,32.33
2018-04-07T23:39:13.278Z,36.77
2018-04-07T23:41:40.778Z,32.77
2018-04-07T23:44:09.061Z,31.90
2018-04-07T23:46:37.368Z,33.83
2018-04-07T23:49:04.951Z,32.63
2018-04-07T23:51:33.988Z,31.97
2018-04-07T23:54:02.583Z,38.23
2018-04-07T23:56:30.251Z,34.30
2018-04-07T23:58:57.884Z,34.87
